Main page
METAR-TAF:

METAR-TAF

Airports :

Dehradun Airport

Dehradun, India

latitude: 30-11-23N, longitude: 78-10-49E, elevation: 558 m

Current weather observation

The report was made 39 minutes ago, at 01:30 UTC
Wind 3 kt from the East/Northeast
Temperature 11°C
Humidity 87%
Pressure 1014 hPa
Visibility: 3000 m
Few clouds at a height of 8000 ft
mist

METAR: VIDN 160130Z 06003KT 3000 BR FEW080 11/09 Q1014

Time: 07:39 (02:09 UTC)


TAF: missing

Weather observations and forecasts of more than 4000 airports (METAR and TAF reports).

The available stations are represented by yellow and red dots on the map.

Hover mouse over dot to see the name of the station.

Then click to see weather observations and forecasts.

To change the map : click on the green buttons with a black cross to zoom in, on the green button with a dash to zoom out, or on the green arrows for adjacent maps.


METAR-TAF: